sensor_id;sensor_type;location;lat;lon;timestamp;temperature;humidity
76897;SHT30;65856;52.178;21.176;2024-02-28T00:01:38;10.55;78.64
76897;SHT30;65856;52.178;21.176;2024-02-28T00:04:14;10.53;78.80
76897;SHT30;65856;52.178;21.176;2024-02-28T00:06:39;10.53;78.90
76897;SHT30;65856;52.178;21.176;2024-02-28T00:09:05;10.54;78.93
76897;SHT30;65856;52.178;21.176;2024-02-28T00:11:30;10.54;78.97
76897;SHT30;65856;52.178;21.176;2024-02-28T00:13:55;10.54;79.03
76897;SHT30;65856;52.178;21.176;2024-02-28T00:16:21;10.55;79.12
76897;SHT30;65856;52.178;21.176;2024-02-28T00:18:46;10.56;79.16
76897;SHT30;65856;52.178;21.176;2024-02-28T00:21:12;10.56;79.12
76897;SHT30;65856;52.178;21.176;2024-02-28T00:23:37;10.57;79.04
76897;SHT30;65856;52.178;21.176;2024-02-28T00:26:02;10.56;79.08
76897;SHT30;65856;52.178;21.176;2024-02-28T00:28:28;10.55;79.15
76897;SHT30;65856;52.178;21.176;2024-02-28T00:30:53;10.54;79.25
76897;SHT30;65856;52.178;21.176;2024-02-28T00:33:19;10.54;79.34
76897;SHT30;65856;52.178;21.176;2024-02-28T00:35:44;10.55;79.40
76897;SHT30;65856;52.178;21.176;2024-02-28T00:38:09;10.56;79.41
76897;SHT30;65856;52.178;21.176;2024-02-28T00:40:35;10.57;79.47
76897;SHT30;65856;52.178;21.176;2024-02-28T00:43:00;10.59;79.47
76897;SHT30;65856;52.178;21.176;2024-02-28T00:45:26;10.59;79.50
76897;SHT30;65856;52.178;21.176;2024-02-28T00:47:52;10.61;79.58
76897;SHT30;65856;52.178;21.176;2024-02-28T00:50:19;10.60;79.59
76897;SHT30;65856;52.178;21.176;2024-02-28T00:52:45;10.61;79.60
76897;SHT30;65856;52.178;21.176;2024-02-28T00:55:10;10.63;79.66
76897;SHT30;65856;52.178;21.176;2024-02-28T00:57:36;10.64;79.63
76897;SHT30;65856;52.178;21.176;2024-02-28T01:00:01;10.64;79.60
76897;SHT30;65856;52.178;21.176;2024-02-28T01:02:27;10.64;79.61
76897;SHT30;65856;52.178;21.176;2024-02-28T01:04:52;10.64;79.66
76897;SHT30;65856;52.178;21.176;2024-02-28T01:07:17;10.63;79.69
76897;SHT30;65856;52.178;21.176;2024-02-28T01:09:43;10.62;79.80
76897;SHT30;65856;52.178;21.176;2024-02-28T01:12:09;10.62;79.82
76897;SHT30;65856;52.178;21.176;2024-02-28T01:14:35;10.59;79.71
76897;SHT30;65856;52.178;21.176;2024-02-28T01:17:00;10.58;79.70
76897;SHT30;65856;52.178;21.176;2024-02-28T01:19:25;10.58;79.71
76897;SHT30;65856;52.178;21.176;2024-02-28T01:21:51;10.57;79.69
76897;SHT30;65856;52.178;21.176;2024-02-28T01:24:16;10.56;79.69
76897;SHT30;65856;52.178;21.176;2024-02-28T01:26:42;10.56;79.72
76897;SHT30;65856;52.178;21.176;2024-02-28T01:29:07;10.55;79.80
76897;SHT30;65856;52.178;21.176;2024-02-28T01:31:32;10.54;79.81
76897;SHT30;65856;52.178;21.176;2024-02-28T01:33:58;10.53;79.90
76897;SHT30;65856;52.178;21.176;2024-02-28T01:36:23;10.54;79.96
76897;SHT30;65856;52.178;21.176;2024-02-28T01:38:49;10.53;80.00
76897;SHT30;65856;52.178;21.176;2024-02-28T01:41:14;10.52;80.07
76897;SHT30;65856;52.178;21.176;2024-02-28T01:43:40;10.50;80.17
76897;SHT30;65856;52.178;21.176;2024-02-28T01:46:17;10.51;80.26
76897;SHT30;65856;52.178;21.176;2024-02-28T01:48:48;10.51;80.30
76897;SHT30;65856;52.178;21.176;2024-02-28T01:51:14;10.51;80.32
76897;SHT30;65856;52.178;21.176;2024-02-28T01:53:40;10.52;80.43
76897;SHT30;65856;52.178;21.176;2024-02-28T01:56:05;10.53;80.48
76897;SHT30;65856;52.178;21.176;2024-02-28T01:58:31;10.49;80.52
76897;SHT30;65856;52.178;21.176;2024-02-28T02:00:57;10.51;80.62
76897;SHT30;65856;52.178;21.176;2024-02-28T02:03:24;10.53;80.71
76897;SHT30;65856;52.178;21.176;2024-02-28T02:05:49;10.54;80.78
76897;SHT30;65856;52.178;21.176;2024-02-28T02:08:15;10.55;80.86
76897;SHT30;65856;52.178;21.176;2024-02-28T02:10:41;10.56;80.93
76897;SHT30;65856;52.178;21.176;2024-02-28T02:13:06;10.56;81.04
76897;SHT30;65856;52.178;21.176;2024-02-28T02:15:32;10.54;81.16
76897;SHT30;65856;52.178;21.176;2024-02-28T02:17:58;10.54;81.29
76897;SHT30;65856;52.178;21.176;2024-02-28T02:20:24;10.56;81.38
76897;SHT30;65856;52.178;21.176;2024-02-28T02:22:52;10.57;81.40
76897;SHT30;65856;52.178;21.176;2024-02-28T02:25:18;10.57;81.46
76897;SHT30;65856;52.178;21.176;2024-02-28T02:27:43;10.57;81.54
76897;SHT30;65856;52.178;21.176;2024-02-28T02:30:09;10.58;81.59
76897;SHT30;65856;52.178;21.176;2024-02-28T02:32:36;10.58;81.68
76897;SHT30;65856;52.178;21.176;2024-02-28T02:35:01;10.59;81.80
76897;SHT30;65856;52.178;21.176;2024-02-28T02:37:27;10.58;81.84
76897;SHT30;65856;52.178;21.176;2024-02-28T02:39:52;10.59;81.92
76897;SHT30;65856;52.178;21.176;2024-02-28T02:42:18;10.60;82.04
76897;SHT30;65856;52.178;21.176;2024-02-28T02:44:44;10.62;82.11
76897;SHT30;65856;52.178;21.176;2024-02-28T02:47:09;10.64;82.20
76897;SHT30;65856;52.178;21.176;2024-02-28T02:49:35;10.64;82.11
76897;SHT30;65856;52.178;21.176;2024-02-28T02:52:00;10.63;82.15
76897;SHT30;65856;52.178;21.176;2024-02-28T02:54:25;10.63;82.32
76897;SHT30;65856;52.178;21.176;2024-02-28T02:56:51;10.61;82.40
76897;SHT30;65856;52.178;21.176;2024-02-28T02:59:16;10.64;82.50
76897;SHT30;65856;52.178;21.176;2024-02-28T03:01:42;10.66;82.46
76897;SHT30;65856;52.178;21.176;2024-02-28T03:04:07;10.65;82.31
76897;SHT30;65856;52.178;21.176;2024-02-28T03:06:32;10.64;82.30
76897;SHT30;65856;52.178;21.176;2024-02-28T03:08:58;10.64;82.30
76897;SHT30;65856;52.178;21.176;2024-02-28T03:11:23;10.66;82.37
76897;SHT30;65856;52.178;21.176;2024-02-28T03:13:49;10.67;82.34
76897;SHT30;65856;52.178;21.176;2024-02-28T03:16:15;10.68;82.33
76897;SHT30;65856;52.178;21.176;2024-02-28T03:18:40;10.66;82.34
76897;SHT30;65856;52.178;21.176;2024-02-28T03:21:05;10.67;82.38
76897;SHT30;65856;52.178;21.176;2024-02-28T03:23:31;10.67;82.40
76897;SHT30;65856;52.178;21.176;2024-02-28T03:25:58;10.67;82.40
76897;SHT30;65856;52.178;21.176;2024-02-28T03:28:23;10.67;82.40
76897;SHT30;65856;52.178;21.176;2024-02-28T03:30:49;10.67;82.39
76897;SHT30;65856;52.178;21.176;2024-02-28T03:33:14;10.65;82.40
76897;SHT30;65856;52.178;21.176;2024-02-28T03:35:39;10.62;82.40
76897;SHT30;65856;52.178;21.176;2024-02-28T03:38:05;10.61;82.36
76897;SHT30;65856;52.178;21.176;2024-02-28T03:40:30;10.59;82.25
76897;SHT30;65856;52.178;21.176;2024-02-28T03:42:56;10.57;82.14
76897;SHT30;65856;52.178;21.176;2024-02-28T03:45:22;10.54;82.11
76897;SHT30;65856;52.178;21.176;2024-02-28T03:47:48;10.51;82.10
76897;SHT30;65856;52.178;21.176;2024-02-28T03:50:13;10.51;82.12
76897;SHT30;65856;52.178;21.176;2024-02-28T03:52:39;10.51;82.28
76897;SHT30;65856;52.178;21.176;2024-02-28T03:55:04;10.50;82.37
76897;SHT30;65856;52.178;21.176;2024-02-28T03:57:30;10.50;82.33
76897;SHT30;65856;52.178;21.176;2024-02-28T03:59:55;10.49;82.22
76897;SHT30;65856;52.178;21.176;2024-02-28T04:02:20;10.46;82.05
76897;SHT30;65856;52.178;21.176;2024-02-28T04:04:46;10.44;82.00
76897;SHT30;65856;52.178;21.176;2024-02-28T04:07:11;10.42;82.02
76897;SHT30;65856;52.178;21.176;2024-02-28T04:09:37;10.42;82.00
76897;SHT30;65856;52.178;21.176;2024-02-28T04:12:02;10.41;81.89
76897;SHT30;65856;52.178;21.176;2024-02-28T04:14:28;10.40;81.91
76897;SHT30;65856;52.178;21.176;2024-02-28T04:16:53;10.40;82.11
76897;SHT30;65856;52.178;21.176;2024-02-28T04:19:19;10.40;82.17
76897;SHT30;65856;52.178;21.176;2024-02-28T04:21:44;10.40;82.12
76897;SHT30;65856;52.178;21.176;2024-02-28T04:24:10;10.39;82.14
76897;SHT30;65856;52.178;21.176;2024-02-28T04:26:35;10.39;82.20
76897;SHT30;65856;52.178;21.176;2024-02-28T04:29:01;10.40;82.17
76897;SHT30;65856;52.178;21.176;2024-02-28T04:31:30;10.40;82.19
76897;SHT30;65856;52.178;21.176;2024-02-28T04:33:56;10.39;82.17
76897;SHT30;65856;52.178;21.176;2024-02-28T04:36:22;10.38;82.11
76897;SHT30;65856;52.178;21.176;2024-02-28T04:38:47;10.35;82.21
76897;SHT30;65856;52.178;21.176;2024-02-28T04:41:13;10.34;82.32
76897;SHT30;65856;52.178;21.176;2024-02-28T04:43:38;10.35;82.42
76897;SHT30;65856;52.178;21.176;2024-02-28T04:46:05;10.33;82.54
76897;SHT30;65856;52.178;21.176;2024-02-28T04:48:30;10.32;82.61
76897;SHT30;65856;52.178;21.176;2024-02-28T04:50:56;10.30;82.66
76897;SHT30;65856;52.178;21.176;2024-02-28T04:53:22;10.32;82.72
76897;SHT30;65856;52.178;21.176;2024-02-28T04:55:47;10.32;82.64
76897;SHT30;65856;52.178;21.176;2024-02-28T04:58:12;10.29;82.43
76897;SHT30;65856;52.178;21.176;2024-02-28T05:00:38;10.25;82.12
76897;SHT30;65856;52.178;21.176;2024-02-28T05:03:04;10.22;81.88
76897;SHT30;65856;52.178;21.176;2024-02-28T05:05:29;10.19;81.76
76897;SHT30;65856;52.178;21.176;2024-02-28T05:07:55;10.15;81.73
76897;SHT30;65856;52.178;21.176;2024-02-28T05:10:20;10.12;81.82
76897;SHT30;65856;52.178;21.176;2024-02-28T05:12:45;10.09;81.94
76897;SHT30;65856;52.178;21.176;2024-02-28T05:15:11;10.06;81.79
76897;SHT30;65856;52.178;21.176;2024-02-28T05:17:36;10.01;81.75
76897;SHT30;65856;52.178;21.176;2024-02-28T05:20:02;9.98;81.69
76897;SHT30;65856;52.178;21.176;2024-02-28T05:22:27;9.94;81.55
76897;SHT30;65856;52.178;21.176;2024-02-28T05:24:53;9.89;81.56
76897;SHT30;65856;52.178;21.176;2024-02-28T05:27:18;9.86;81.54
76897;SHT30;65856;52.178;21.176;2024-02-28T05:29:44;9.84;81.71
76897;SHT30;65856;52.178;21.176;2024-02-28T05:32:10;9.82;82.03
76897;SHT30;65856;52.178;21.176;2024-02-28T05:34:35;9.83;82.12
76897;SHT30;65856;52.178;21.176;2024-02-28T05:37:01;9.83;81.91
76897;SHT30;65856;52.178;21.176;2024-02-28T05:39:26;9.84;82.09
76897;SHT30;65856;52.178;21.176;2024-02-28T05:41:55;9.85;82.01
76897;SHT30;65856;52.178;21.176;2024-02-28T05:44:22;9.85;82.08
76897;SHT30;65856;52.178;21.176;2024-02-28T05:46:47;9.85;82.25
76897;SHT30;65856;52.178;21.176;2024-02-28T05:49:13;9.87;82.47
76897;SHT30;65856;52.178;21.176;2024-02-28T05:51:38;9.87;82.56
76897;SHT30;65856;52.178;21.176;2024-02-28T05:54:04;9.89;82.60
76897;SHT30;65856;52.178;21.176;2024-02-28T05:56:29;9.90;82.42
76897;SHT30;65856;52.178;21.176;2024-02-28T05:58:55;9.90;82.62
76897;SHT30;65856;52.178;21.176;2024-02-28T06:01:20;9.91;82.90
76897;SHT30;65856;52.178;21.176;2024-02-28T06:03:46;9.93;83.04
76897;SHT30;65856;52.178;21.176;2024-02-28T06:06:13;9.95;83.18
76897;SHT30;65856;52.178;21.176;2024-02-28T06:08:39;9.98;83.27
76897;SHT30;65856;52.178;21.176;2024-02-28T06:11:05;10.01;83.37
76897;SHT30;65856;52.178;21.176;2024-02-28T06:13:32;10.02;83.44
76897;SHT30;65856;52.178;21.176;2024-02-28T06:15:58;10.06;83.52
76897;SHT30;65856;52.178;21.176;2024-02-28T06:18:24;10.06;83.61
76897;SHT30;65856;52.178;21.176;2024-02-28T06:20:58;10.08;83.67
76897;SHT30;65856;52.178;21.176;2024-02-28T06:23:24;10.08;83.74
76897;SHT30;65856;52.178;21.176;2024-02-28T06:25:50;10.11;83.81
76897;SHT30;65856;52.178;21.176;2024-02-28T06:28:16;10.17;83.58
76897;SHT30;65856;52.178;21.176;2024-02-28T06:30:44;10.20;83.65
76897;SHT30;65856;52.178;21.176;2024-02-28T06:33:13;10.20;83.75
76897;SHT30;65856;52.178;21.176;2024-02-28T06:35:39;10.21;83.80
76897;SHT30;65856;52.178;21.176;2024-02-28T06:38:05;10.23;83.81
76897;SHT30;65856;52.178;21.176;2024-02-28T06:40:30;10.27;83.83
76897;SHT30;65856;52.178;21.176;2024-02-28T06:42:56;10.29;83.88
76897;SHT30;65856;52.178;21.176;2024-02-28T06:45:21;10.31;83.89
76897;SHT30;65856;52.178;21.176;2024-02-28T06:47:47;10.35;83.90
76897;SHT30;65856;52.178;21.176;2024-02-28T06:50:13;10.38;83.90
76897;SHT30;65856;52.178;21.176;2024-02-28T06:52:39;10.41;83.90
76897;SHT30;65856;52.178;21.176;2024-02-28T06:55:04;10.44;83.91
76897;SHT30;65856;52.178;21.176;2024-02-28T06:57:35;10.44;83.95
76897;SHT30;65856;52.178;21.176;2024-02-28T07:00:06;10.45;83.97
76897;SHT30;65856;52.178;21.176;2024-02-28T07:02:34;10.49;83.97
76897;SHT30;65856;52.178;21.176;2024-02-28T07:05:00;10.50;84.00
76897;SHT30;65856;52.178;21.176;2024-02-28T07:07:28;10.52;84.00
76897;SHT30;65856;52.178;21.176;2024-02-28T07:09:53;10.54;84.06
76897;SHT30;65856;52.178;21.176;2024-02-28T07:12:19;10.55;84.09
76897;SHT30;65856;52.178;21.176;2024-02-28T07:14:44;10.56;84.10
76897;SHT30;65856;52.178;21.176;2024-02-28T07:17:10;10.56;84.06
76897;SHT30;65856;52.178;21.176;2024-02-28T07:19:35;10.59;84.08
76897;SHT30;65856;52.178;21.176;2024-02-28T07:22:01;10.60;84.09
76897;SHT30;65856;52.178;21.176;2024-02-28T07:24:26;10.63;84.10
76897;SHT30;65856;52.178;21.176;2024-02-28T07:26:52;10.65;84.13
76897;SHT30;65856;52.178;21.176;2024-02-28T07:29:17;10.67;84.17
76897;SHT30;65856;52.178;21.176;2024-02-28T07:31:43;10.69;84.18
76897;SHT30;65856;52.178;21.176;2024-02-28T07:34:08;10.71;84.19
76897;SHT30;65856;52.178;21.176;2024-02-28T07:36:34;10.74;84.19
76897;SHT30;65856;52.178;21.176;2024-02-28T07:38:59;10.77;84.18
76897;SHT30;65856;52.178;21.176;2024-02-28T07:41:25;10.80;84.17
76897;SHT30;65856;52.178;21.176;2024-02-28T07:43:50;10.81;84.20
76897;SHT30;65856;52.178;21.176;2024-02-28T07:46:16;10.83;84.20
76897;SHT30;65856;52.178;21.176;2024-02-28T07:48:41;10.86;84.20
76897;SHT30;65856;52.178;21.176;2024-02-28T07:51:08;10.88;84.20
76897;SHT30;65856;52.178;21.176;2024-02-28T07:53:33;10.88;84.18
76897;SHT30;65856;52.178;21.176;2024-02-28T07:56:00;10.88;84.20
76897;SHT30;65856;52.178;21.176;2024-02-28T07:58:25;10.91;84.20
76897;SHT30;65856;52.178;21.176;2024-02-28T08:00:51;10.93;84.21
76897;SHT30;65856;52.178;21.176;2024-02-28T08:03:19;10.96;84.20
76897;SHT30;65856;52.178;21.176;2024-02-28T08:05:45;11.00;84.21
76897;SHT30;65856;52.178;21.176;2024-02-28T08:08:11;11.03;84.22
76897;SHT30;65856;52.178;21.176;2024-02-28T08:10:37;11.09;84.28
76897;SHT30;65856;52.178;21.176;2024-02-28T08:13:03;11.15;84.22
76897;SHT30;65856;52.178;21.176;2024-02-28T08:15:29;11.19;84.21
76897;SHT30;65856;52.178;21.176;2024-02-28T08:17:56;11.23;84.25
76897;SHT30;65856;52.178;21.176;2024-02-28T08:20:21;11.28;84.22
76897;SHT30;65856;52.178;21.176;2024-02-28T08:22:47;11.29;84.17
76897;SHT30;65856;52.178;21.176;2024-02-28T08:25:12;11.31;84.16
76897;SHT30;65856;52.178;21.176;2024-02-28T08:27:39;11.34;84.20
76897;SHT30;65856;52.178;21.176;2024-02-28T08:30:05;11.36;84.20
76897;SHT30;65856;52.178;21.176;2024-02-28T08:32:31;11.41;84.20
76897;SHT30;65856;52.178;21.176;2024-02-28T08:34:57;11.44;84.17
76897;SHT30;65856;52.178;21.176;2024-02-28T08:37:23;11.46;84.11
76897;SHT30;65856;52.178;21.176;2024-02-28T08:39:49;11.50;84.16
76897;SHT30;65856;52.178;21.176;2024-02-28T08:42:15;11.54;84.15
76897;SHT30;65856;52.178;21.176;2024-02-28T08:44:41;11.56;84.14
76897;SHT30;65856;52.178;21.176;2024-02-28T08:47:06;11.61;84.19
76897;SHT30;65856;52.178;21.176;2024-02-28T08:49:34;11.65;84.10
76897;SHT30;65856;52.178;21.176;2024-02-28T08:52:00;11.68;84.08
76897;SHT30;65856;52.178;21.176;2024-02-28T08:54:26;11.71;84.01
76897;SHT30;65856;52.178;21.176;2024-02-28T08:56:51;11.72;83.91
76897;SHT30;65856;52.178;21.176;2024-02-28T08:59:17;11.74;83.98
76897;SHT30;65856;52.178;21.176;2024-02-28T09:01:42;11.77;83.97
76897;SHT30;65856;52.178;21.176;2024-02-28T09:04:08;11.81;83.97
76897;SHT30;65856;52.178;21.176;2024-02-28T09:06:33;11.84;83.96
76897;SHT30;65856;52.178;21.176;2024-02-28T09:08:59;11.89;84.01
76897;SHT30;65856;52.178;21.176;2024-02-28T09:11:24;11.92;84.06
76897;SHT30;65856;52.178;21.176;2024-02-28T09:13:52;11.94;84.11
76897;SHT30;65856;52.178;21.176;2024-02-28T09:16:17;11.99;84.22
76897;SHT30;65856;52.178;21.176;2024-02-28T09:18:44;12.03;84.29
76897;SHT30;65856;52.178;21.176;2024-02-28T09:21:09;12.08;84.30
76897;SHT30;65856;52.178;21.176;2024-02-28T09:23:35;12.12;84.30
76897;SHT30;65856;52.178;21.176;2024-02-28T09:26:03;12.17;84.30
76897;SHT30;65856;52.178;21.176;2024-02-28T09:28:30;12.20;84.23
76897;SHT30;65856;52.178;21.176;2024-02-28T09:30:56;12.24;84.24
76897;SHT30;65856;52.178;21.176;2024-02-28T09:33:22;12.30;84.30
76897;SHT30;65856;52.178;21.176;2024-02-28T09:35:48;12.35;84.26
76897;SHT30;65856;52.178;21.176;2024-02-28T09:38:13;12.40;84.20
76897;SHT30;65856;52.178;21.176;2024-02-28T09:40:39;12.42;84.20
76897;SHT30;65856;52.178;21.176;2024-02-28T09:43:05;12.44;84.16
76897;SHT30;65856;52.178;21.176;2024-02-28T09:45:36;12.45;84.06
76897;SHT30;65856;52.178;21.176;2024-02-28T09:48:02;12.48;83.97
76897;SHT30;65856;52.178;21.176;2024-02-28T09:50:28;12.52;84.07
76897;SHT30;65856;52.178;21.176;2024-02-28T09:52:54;12.56;84.10
76897;SHT30;65856;52.178;21.176;2024-02-28T09:55:20;12.60;84.06
76897;SHT30;65856;52.178;21.176;2024-02-28T09:57:48;12.66;84.10
76897;SHT30;65856;52.178;21.176;2024-02-28T10:00:17;12.69;84.03
76897;SHT30;65856;52.178;21.176;2024-02-28T10:02:46;12.73;83.96
76897;SHT30;65856;52.178;21.176;2024-02-28T10:05:14;12.76;83.84
76897;SHT30;65856;52.178;21.176;2024-02-28T10:07:41;12.78;83.64
76897;SHT30;65856;52.178;21.176;2024-02-28T10:10:07;12.79;83.57
76897;SHT30;65856;52.178;21.176;2024-02-28T10:12:33;12.81;83.60
76897;SHT30;65856;52.178;21.176;2024-02-28T10:15:00;12.85;83.61
76897;SHT30;65856;52.178;21.176;2024-02-28T10:17:26;12.85;83.53
76897;SHT30;65856;52.178;21.176;2024-02-28T10:19:52;12.87;83.49
76897;SHT30;65856;52.178;21.176;2024-02-28T10:22:17;12.91;83.59
76897;SHT30;65856;52.178;21.176;2024-02-28T10:24:43;12.98;83.60
76897;SHT30;65856;52.178;21.176;2024-02-28T10:27:08;13.04;83.44
76897;SHT30;65856;52.178;21.176;2024-02-28T10:29:34;13.06;83.29
76897;SHT30;65856;52.178;21.176;2024-02-28T10:31:59;13.11;83.36
76897;SHT30;65856;52.178;21.176;2024-02-28T10:34:25;13.16;83.31
76897;SHT30;65856;52.178;21.176;2024-02-28T10:36:51;13.21;83.14
76897;SHT30;65856;52.178;21.176;2024-02-28T10:39:16;13.26;82.91
76897;SHT30;65856;52.178;21.176;2024-02-28T10:41:43;13.30;82.80
76897;SHT30;65856;52.178;21.176;2024-02-28T10:44:12;13.34;82.64
76897;SHT30;65856;52.178;21.176;2024-02-28T10:46:38;13.36;82.52
76897;SHT30;65856;52.178;21.176;2024-02-28T10:49:05;13.39;82.49
76897;SHT30;65856;52.178;21.176;2024-02-28T10:51:32;13.42;82.26
76897;SHT30;65856;52.178;21.176;2024-02-28T10:56:38;13.44;82.19
76897;SHT30;65856;52.178;21.176;2024-02-28T10:59:08;13.48;82.19
76897;SHT30;65856;52.178;21.176;2024-02-28T11:01:41;13.50;82.09
76897;SHT30;65856;52.178;21.176;2024-02-28T11:04:09;13.53;81.96
76897;SHT30;65856;52.178;21.176;2024-02-28T11:06:49;13.56;81.96
76897;SHT30;65856;52.178;21.176;2024-02-28T11:09:25;13.58;81.75
76897;SHT30;65856;52.178;21.176;2024-02-28T11:11:51;13.57;81.52
76897;SHT30;65856;52.178;21.176;2024-02-28T11:14:17;13.56;81.55
76897;SHT30;65856;52.178;21.176;2024-02-28T11:16:47;13.56;81.60
76897;SHT30;65856;52.178;21.176;2024-02-28T11:19:19;13.58;81.43
76897;SHT30;65856;52.178;21.176;2024-02-28T11:21:54;13.59;81.30
76897;SHT30;65856;52.178;21.176;2024-02-28T11:24:32;13.60;81.28
76897;SHT30;65856;52.178;21.176;2024-02-28T11:26:59;13.59;81.24
76897;SHT30;65856;52.178;21.176;2024-02-28T11:29:26;13.60;81.20
76897;SHT30;65856;52.178;21.176;2024-02-28T11:31:56;13.61;81.12
76897;SHT30;65856;52.178;21.176;2024-02-28T11:34:21;13.61;81.00
76897;SHT30;65856;52.178;21.176;2024-02-28T11:36:47;13.61;81.00
76897;SHT30;65856;52.178;21.176;2024-02-28T11:39:18;13.62;80.91
76897;SHT30;65856;52.178;21.176;2024-02-28T11:41:44;13.62;80.92
76897;SHT30;65856;52.178;21.176;2024-02-28T11:44:12;13.65;80.89
76897;SHT30;65856;52.178;21.176;2024-02-28T11:46:44;13.68;80.91
76897;SHT30;65856;52.178;21.176;2024-02-28T11:49:11;13.70;80.86
76897;SHT30;65856;52.178;21.176;2024-02-28T11:51:40;13.72;80.78
76897;SHT30;65856;52.178;21.176;2024-02-28T11:54:09;13.74;80.80
76897;SHT30;65856;52.178;21.176;2024-02-28T11:56:36;13.77;80.73
76897;SHT30;65856;52.178;21.176;2024-02-28T11:59:05;13.77;80.62
76897;SHT30;65856;52.178;21.176;2024-02-28T12:01:40;13.79;80.54
76897;SHT30;65856;52.178;21.176;2024-02-28T12:04:08;13.79;80.40
76897;SHT30;65856;52.178;21.176;2024-02-28T12:06:35;13.78;80.36
76897;SHT30;65856;52.178;21.176;2024-02-28T12:09:06;13.80;80.40
76897;SHT30;65856;52.178;21.176;2024-02-28T12:11:35;13.78;80.47
76897;SHT30;65856;52.178;21.176;2024-02-28T12:14:03;13.76;80.59
76897;SHT30;65856;52.178;21.176;2024-02-28T12:16:32;13.77;80.61
76897;SHT30;65856;52.178;21.176;2024-02-28T12:18:57;13.77;80.67
76897;SHT30;65856;52.178;21.176;2024-02-28T12:21:22;13.77;80.60
76897;SHT30;65856;52.178;21.176;2024-02-28T12:23:48;13.79;80.67
76897;SHT30;65856;52.178;21.176;2024-02-28T12:26:16;13.82;80.52
76897;SHT30;65856;52.178;21.176;2024-02-28T12:28:43;13.83;80.42
76897;SHT30;65856;52.178;21.176;2024-02-28T12:31:09;13.83;80.37
76897;SHT30;65856;52.178;21.176;2024-02-28T12:33:36;13.84;80.17
76897;SHT30;65856;52.178;21.176;2024-02-28T12:36:02;13.84;80.05
76897;SHT30;65856;52.178;21.176;2024-02-28T12:38:29;13.84;80.02
76897;SHT30;65856;52.178;21.176;2024-02-28T12:40:54;13.84;79.81
76897;SHT30;65856;52.178;21.176;2024-02-28T12:43:20;13.82;79.63
76897;SHT30;65856;52.178;21.176;2024-02-28T12:45:45;13.81;79.59
76897;SHT30;65856;52.178;21.176;2024-02-28T12:48:11;13.75;79.56
76897;SHT30;65856;52.178;21.176;2024-02-28T12:50:36;13.70;79.64
76897;SHT30;65856;52.178;21.176;2024-02-28T12:53:02;13.67;79.69
76897;SHT30;65856;52.178;21.176;2024-02-28T12:55:28;13.65;79.81
76897;SHT30;65856;52.178;21.176;2024-02-28T12:57:54;13.65;79.81
76897;SHT30;65856;52.178;21.176;2024-02-28T13:00:20;13.59;79.72
76897;SHT30;65856;52.178;21.176;2024-02-28T13:02:46;13.55;79.75
76897;SHT30;65856;52.178;21.176;2024-02-28T13:05:11;13.51;79.84
76897;SHT30;65856;52.178;21.176;2024-02-28T13:07:40;13.47;79.99
76897;SHT30;65856;52.178;21.176;2024-02-28T13:10:06;13.43;80.02
76897;SHT30;65856;52.178;21.176;2024-02-28T13:12:34;13.40;80.10
76897;SHT30;65856;52.178;21.176;2024-02-28T13:14:59;13.33;80.13
76897;SHT30;65856;52.178;21.176;2024-02-28T13:17:25;13.30;80.24
76897;SHT30;65856;52.178;21.176;2024-02-28T13:19:51;13.26;80.30
76897;SHT30;65856;52.178;21.176;2024-02-28T13:22:16;13.19;80.31
76897;SHT30;65856;52.178;21.176;2024-02-28T13:24:42;13.10;80.23
76897;SHT30;65856;52.178;21.176;2024-02-28T13:27:07;13.01;80.31
76897;SHT30;65856;52.178;21.176;2024-02-28T13:29:34;12.93;80.14
76897;SHT30;65856;52.178;21.176;2024-02-28T13:32:00;12.85;80.11
76897;SHT30;65856;52.178;21.176;2024-02-28T13:34:26;12.78;80.08
76897;SHT30;65856;52.178;21.176;2024-02-28T13:36:52;12.70;79.94
76897;SHT30;65856;52.178;21.176;2024-02-28T13:39:17;12.62;80.04
76897;SHT30;65856;52.178;21.176;2024-02-28T13:41:43;12.58;80.09
76897;SHT30;65856;52.178;21.176;2024-02-28T13:44:09;12.52;80.10
76897;SHT30;65856;52.178;21.176;2024-02-28T13:46:35;12.42;80.02
76897;SHT30;65856;52.178;21.176;2024-02-28T13:49:02;12.33;80.12
76897;SHT30;65856;52.178;21.176;2024-02-28T13:51:29;12.27;80.19
76897;SHT30;65856;52.178;21.176;2024-02-28T13:53:54;12.21;80.09
76897;SHT30;65856;52.178;21.176;2024-02-28T13:56:20;12.13;80.14
76897;SHT30;65856;52.178;21.176;2024-02-28T13:58:46;12.09;80.31
76897;SHT30;65856;52.178;21.176;2024-02-28T14:01:12;12.03;80.39
76897;SHT30;65856;52.178;21.176;2024-02-28T14:03:37;12.00;80.49
76897;SHT30;65856;52.178;21.176;2024-02-28T14:06:03;11.97;80.56
76897;SHT30;65856;52.178;21.176;2024-02-28T14:08:29;11.96;80.58
76897;SHT30;65856;52.178;21.176;2024-02-28T14:10:54;11.91;80.65
76897;SHT30;65856;52.178;21.176;2024-02-28T14:13:20;11.85;80.80
76897;SHT30;65856;52.178;21.176;2024-02-28T14:15:45;11.80;80.94
76897;SHT30;65856;52.178;21.176;2024-02-28T14:18:11;11.78;81.08
76897;SHT30;65856;52.178;21.176;2024-02-28T14:20:37;11.79;81.15
76897;SHT30;65856;52.178;21.176;2024-02-28T14:23:03;11.80;81.20
76897;SHT30;65856;52.178;21.176;2024-02-28T14:25:30;11.79;81.27
76897;SHT30;65856;52.178;21.176;2024-02-28T14:27:55;11.76;81.34
76897;SHT30;65856;52.178;21.176;2024-02-28T14:30:21;11.74;81.48
76897;SHT30;65856;52.178;21.176;2024-02-28T14:32:47;11.74;81.60
76897;SHT30;65856;52.178;21.176;2024-02-28T14:35:14;11.73;81.61
76897;SHT30;65856;52.178;21.176;2024-02-28T14:37:39;11.72;81.63
76897;SHT30;65856;52.178;21.176;2024-02-28T14:40:06;11.73;81.64
76897;SHT30;65856;52.178;21.176;2024-02-28T14:42:37;11.73;81.60
76897;SHT30;65856;52.178;21.176;2024-02-28T14:45:05;11.72;81.63
76897;SHT30;65856;52.178;21.176;2024-02-28T14:47:40;11.71;81.75
76897;SHT30;65856;52.178;21.176;2024-02-28T14:50:07;11.70;81.79
76897;SHT30;65856;52.178;21.176;2024-02-28T14:52:40;11.68;81.80
76897;SHT30;65856;52.178;21.176;2024-02-28T14:55:07;11.64;81.90
76897;SHT30;65856;52.178;21.176;2024-02-28T14:57:34;11.62;81.92
76897;SHT30;65856;52.178;21.176;2024-02-28T15:00:01;11.61;81.99
76897;SHT30;65856;52.178;21.176;2024-02-28T15:02:32;11.60;81.95
76897;SHT30;65856;52.178;21.176;2024-02-28T15:04:58;11.58;81.97
76897;SHT30;65856;52.178;21.176;2024-02-28T15:07:23;11.54;81.99
76897;SHT30;65856;52.178;21.176;2024-02-28T15:09:49;11.51;82.00
76897;SHT30;65856;52.178;21.176;2024-02-28T15:12:15;11.49;82.01
76897;SHT30;65856;52.178;21.176;2024-02-28T15:14:41;11.45;82.12